createdAt,value
2022-12-01T00:01:47.266Z,93.30
2022-12-01T00:04:14.245Z,93.30
2022-12-01T00:06:41.066Z,93.30
2022-12-01T00:09:27.473Z,93.30
2022-12-01T00:11:54.468Z,93.30
2022-12-01T00:14:21.291Z,93.20
2022-12-01T00:16:48.193Z,93.30
2022-12-01T00:19:15.099Z,93.40
2022-12-01T00:21:41.959Z,93.40
2022-12-01T00:24:09.135Z,93.20
2022-12-01T00:26:36.905Z,93.30
2022-12-01T00:29:03.944Z,93.40
2022-12-01T00:31:30.911Z,93.40
2022-12-01T00:33:57.769Z,93.40
2022-12-01T00:36:24.689Z,93.20
2022-12-01T00:38:52.120Z,93.40
2022-12-01T00:41:19.202Z,93.30
2022-12-01T00:43:46.024Z,93.30
2022-12-01T00:46:12.896Z,93.30
2022-12-01T00:48:40.148Z,93.30
2022-12-01T00:51:07.167Z,93.30
2022-12-01T00:53:34.200Z,93.30
2022-12-01T00:56:01.047Z,93.30
2022-12-01T00:58:27.926Z,93.30
2022-12-01T01:03:59.134Z,93.30
2022-12-01T01:06:26.011Z,93.30
2022-12-01T01:08:52.809Z,93.30
2022-12-01T01:11:19.720Z,93.30
2022-12-01T01:13:46.540Z,93.30
2022-12-01T01:16:14.613Z,93.30
2022-12-01T01:18:41.468Z,93.30
2022-12-01T01:21:08.715Z,93.30
2022-12-01T01:23:37.703Z,93.30
2022-12-01T01:26:05.388Z,93.30
2022-12-01T01:28:32.450Z,93.30
2022-12-01T01:34:12.260Z,93.20
2022-12-01T01:39:40.190Z,93.20
2022-12-01T01:42:09.230Z,93.30
2022-12-01T01:44:45.349Z,93.20
2022-12-01T01:47:12.331Z,93.30
2022-12-01T01:49:39.612Z,93.30
2022-12-01T01:54:59.225Z,93.30
2022-12-01T01:57:27.146Z,93.20
2022-12-01T01:59:55.426Z,93.20
2022-12-01T02:02:22.304Z,93.20
2022-12-01T02:04:51.455Z,93.20
2022-12-01T02:07:18.740Z,93.20
2022-12-01T02:09:45.843Z,93.20
2022-12-01T02:12:15.873Z,93.20
2022-12-01T02:15:01.206Z,93.20
2022-12-01T02:17:34.338Z,93.20
2022-12-01T02:20:22.787Z,93.20
2022-12-01T02:22:54.105Z,93.20
2022-12-01T02:25:36.880Z,93.20
2022-12-01T02:28:22.364Z,93.30
2022-12-01T02:30:51.482Z,93.20
2022-12-01T02:33:19.567Z,93.20
2022-12-01T02:35:48.258Z,93.40
2022-12-01T02:38:18.131Z,93.30
2022-12-01T02:40:57.448Z,93.40
2022-12-01T02:43:32.411Z,93.30
2022-12-01T02:46:17.989Z,93.30
2022-12-01T02:48:46.294Z,93.40
2022-12-01T02:51:17.710Z,93.30
2022-12-01T02:53:44.542Z,93.40
2022-12-01T02:56:11.847Z,93.40
2022-12-01T02:58:38.684Z,93.40
2022-12-01T03:01:24.245Z,93.60
2022-12-01T03:03:51.223Z,93.60
2022-12-01T03:06:20.700Z,93.70
2022-12-01T03:08:47.537Z,93.80
2022-12-01T03:11:27.254Z,93.70
2022-12-01T03:13:57.408Z,93.80
2022-12-01T03:16:24.316Z,93.70
2022-12-01T03:18:55.396Z,93.60
2022-12-01T03:21:31.194Z,93.60
2022-12-01T03:24:05.812Z,93.50
2022-12-01T03:26:32.852Z,93.50
2022-12-01T03:29:01.075Z,93.50
2022-12-01T03:31:30.112Z,93.50
2022-12-01T03:34:08.064Z,93.50
2022-12-01T03:36:45.589Z,93.50
2022-12-01T03:39:13.025Z,93.60
2022-12-01T03:41:41.747Z,93.40
2022-12-01T03:44:09.597Z,93.50
2022-12-01T03:46:41.309Z,93.30
2022-12-01T03:49:09.764Z,93.40
2022-12-01T03:51:47.250Z,93.20
2022-12-01T03:54:22.635Z,93.50
2022-12-01T03:56:51.597Z,93.60
2022-12-01T03:59:18.599Z,93.50
2022-12-01T04:01:45.459Z,93.50
2022-12-01T04:04:12.644Z,93.60
2022-12-01T04:06:39.756Z,93.50
2022-12-01T04:09:06.643Z,93.20
2022-12-01T04:11:52.078Z,93.40
2022-12-01T04:14:18.897Z,93.40
2022-12-01T04:16:45.689Z,93.40
2022-12-01T04:19:12.539Z,93.40
2022-12-01T04:21:39.327Z,93.50
2022-12-01T04:24:06.297Z,93.40
2022-12-01T04:26:33.889Z,93.50
2022-12-01T04:29:01.260Z,93.40
2022-12-01T04:31:28.227Z,93.40
2022-12-01T04:33:56.048Z,93.40
2022-12-01T04:36:23.281Z,93.40
2022-12-01T04:38:50.146Z,93.40
2022-12-01T04:41:16.940Z,93.20
2022-12-01T04:43:43.793Z,93.20
2022-12-01T04:46:10.809Z,93.10
2022-12-01T04:48:38.079Z,93.30
2022-12-01T04:51:05.456Z,93.40
2022-12-01T04:53:32.309Z,93.20
2022-12-01T04:56:02.133Z,93.30
2022-12-01T04:58:29.344Z,93.20
2022-12-01T05:04:10.819Z,93.30
2022-12-01T05:06:38.102Z,93.30
2022-12-01T05:09:04.957Z,93.30
2022-12-01T05:11:32.160Z,93.30
2022-12-01T05:13:59.039Z,93.20
2022-12-01T05:16:26.816Z,93.10
2022-12-01T05:19:15.383Z,93.20
2022-12-01T05:21:42.474Z,93.20
2022-12-01T05:24:09.452Z,93.20
2022-12-01T05:26:36.288Z,93.40
2022-12-01T05:29:03.196Z,93.50
2022-12-01T05:31:30.146Z,93.50
2022-12-01T05:33:57.002Z,93.50
2022-12-01T05:36:23.839Z,93.30
2022-12-01T05:38:50.779Z,93.50
2022-12-01T05:41:17.599Z,93.50
2022-12-01T05:43:44.466Z,93.30
2022-12-01T05:46:12.158Z,93.40
2022-12-01T05:48:39.012Z,93.50
2022-12-01T05:51:09.634Z,93.40
2022-12-01T05:53:36.494Z,93.30
2022-12-01T05:56:03.388Z,93.20
2022-12-01T05:58:30.277Z,93.30
2022-12-01T06:00:57.081Z,93.30
2022-12-01T06:03:23.917Z,93.20
2022-12-01T06:05:50.870Z,93.00
2022-12-01T06:08:17.757Z,93.10
2022-12-01T06:10:44.633Z,93.00
2022-12-01T06:13:11.487Z,93.10
2022-12-01T06:15:38.311Z,93.00
2022-12-01T06:18:05.156Z,93.00
2022-12-01T06:20:31.987Z,93.10
2022-12-01T06:22:59.673Z,93.10
2022-12-01T06:25:26.630Z,93.00
2022-12-01T06:27:57.457Z,93.00
2022-12-01T06:30:24.413Z,93.00
2022-12-01T06:32:51.252Z,93.00
2022-12-01T06:35:18.112Z,93.00
2022-12-01T06:37:45.026Z,93.00
2022-12-01T06:40:12.037Z,93.00
2022-12-01T06:42:38.897Z,93.00
2022-12-01T06:45:05.887Z,93.00
2022-12-01T06:47:32.738Z,92.90
2022-12-01T06:49:59.689Z,92.90
2022-12-01T06:52:26.596Z,92.90
2022-12-01T06:54:53.470Z,92.80
2022-12-01T06:57:20.565Z,92.70
2022-12-01T06:59:47.938Z,92.70
2022-12-01T07:02:16.724Z,92.80
2022-12-01T07:04:43.597Z,92.70
2022-12-01T07:07:11.308Z,92.70
2022-12-01T07:09:38.199Z,92.50
2022-12-01T07:12:05.133Z,92.50
2022-12-01T07:14:32.028Z,92.60
2022-12-01T07:16:59.114Z,92.60
2022-12-01T07:19:25.962Z,92.40
2022-12-01T07:21:52.784Z,92.40
2022-12-01T07:24:19.599Z,92.50
2022-12-01T07:26:46.489Z,92.40
2022-12-01T07:32:16.904Z,92.30
2022-12-01T07:34:43.820Z,92.20
2022-12-01T07:37:11.635Z,92.40
2022-12-01T07:39:38.478Z,92.40
2022-12-01T07:42:05.404Z,92.30
2022-12-01T07:44:32.272Z,92.20
2022-12-01T07:46:59.088Z,92.30
2022-12-01T07:49:25.959Z,92.40
2022-12-01T07:51:52.859Z,92.40
2022-12-01T07:54:21.407Z,92.20
2022-12-01T07:56:48.403Z,92.40
2022-12-01T07:59:15.304Z,92.30
2022-12-01T08:01:44.699Z,92.60
2022-12-01T08:04:11.923Z,92.30
2022-12-01T08:06:39.360Z,92.40
2022-12-01T08:09:06.426Z,92.20
2022-12-01T08:11:33.412Z,92.10
2022-12-01T08:14:00.314Z,92.00
2022-12-01T08:16:27.398Z,92.10
2022-12-01T08:18:54.471Z,92.00
2022-12-01T08:21:21.815Z,92.10
2022-12-01T08:23:49.121Z,92.10
2022-12-01T08:26:17.224Z,92.20
2022-12-01T08:28:44.585Z,92.10
2022-12-01T08:31:12.365Z,92.10
2022-12-01T08:33:39.230Z,92.00
2022-12-01T08:36:06.263Z,92.00
2022-12-01T08:38:33.082Z,92.30
2022-12-01T08:41:00.788Z,92.20
2022-12-01T08:43:56.049Z,92.30
2022-12-01T08:46:14.663Z,92.20
2022-12-01T08:48:41.548Z,92.30
2022-12-01T08:51:10.120Z,92.70
2022-12-01T08:53:40.210Z,93.00
2022-12-01T08:56:12.022Z,93.10
2022-12-01T08:58:39.116Z,93.10
2022-12-01T09:01:08.076Z,93.10
2022-12-01T09:03:35.600Z,93.10
2022-12-01T09:06:12.502Z,93.20
2022-12-01T09:08:39.582Z,92.70
2022-12-01T09:11:07.630Z,92.50
2022-12-01T09:13:34.707Z,92.10
2022-12-01T09:19:17.910Z,92.10
2022-12-01T09:21:49.109Z,92.20
2022-12-01T09:24:15.983Z,92.10
2022-12-01T09:26:42.832Z,92.20
2022-12-01T09:29:10.359Z,92.30
2022-12-01T09:31:37.425Z,92.40
2022-12-01T09:34:04.989Z,92.60
2022-12-01T09:36:32.269Z,92.40
2022-12-01T09:38:59.151Z,92.40
2022-12-01T09:41:35.291Z,92.40
2022-12-01T09:44:06.023Z,92.70
2022-12-01T09:46:34.883Z,92.90
2022-12-01T09:49:01.756Z,92.70
2022-12-01T09:51:28.669Z,92.70
2022-12-01T09:53:57.227Z,92.70
2022-12-01T09:56:24.290Z,92.70
2022-12-01T09:58:52.827Z,92.50
2022-12-01T10:01:25.871Z,92.40
2022-12-01T10:03:55.285Z,92.40
2022-12-01T10:06:34.587Z,92.20
2022-12-01T10:09:01.439Z,92.30
2022-12-01T10:11:32.254Z,92.30
2022-12-01T10:13:59.495Z,92.20
2022-12-01T10:16:31.515Z,92.10
2022-12-01T10:18:58.343Z,92.20
2022-12-01T10:21:45.729Z,92.20
2022-12-01T10:24:31.121Z,92.10
2022-12-01T10:27:16.635Z,91.80
2022-12-01T10:33:01.004Z,91.50
2022-12-01T10:35:36.163Z,91.40
2022-12-01T10:38:04.615Z,91.00
2022-12-01T10:40:35.290Z,90.80
2022-12-01T10:43:02.447Z,89.90
2022-12-01T10:45:30.646Z,89.50
2022-12-01T10:48:09.598Z,87.00
2022-12-01T10:50:36.702Z,87.70
2022-12-01T10:53:03.671Z,86.80
2022-12-01T10:55:31.859Z,85.50
2022-12-01T10:58:02.424Z,84.90
2022-12-01T11:00:58.734Z,86.60
2022-12-01T11:03:21.949Z,86.10
2022-12-01T11:05:58.109Z,86.90
2022-12-01T11:08:45.333Z,85.50
2022-12-01T11:11:31.051Z,83.50
2022-12-01T11:13:58.219Z,81.50
2022-12-01T11:16:41.888Z,84.10
2022-12-01T11:19:23.542Z,83.00
2022-12-01T11:21:57.839Z,80.50
2022-12-01T11:24:27.403Z,80.40
2022-12-01T11:26:54.306Z,80.90
2022-12-01T11:29:26.885Z,80.80
2022-12-01T11:31:53.992Z,81.40
2022-12-01T11:34:22.328Z,81.00
2022-12-01T11:36:50.435Z,80.20
2022-12-01T11:39:23.862Z,80.10
2022-12-01T11:41:54.856Z,81.00
2022-12-01T11:44:43.534Z,80.10
2022-12-01T11:47:23.152Z,80.10
2022-12-01T11:49:55.650Z,80.10
2022-12-01T11:52:27.677Z,80.20
2022-12-01T11:54:55.399Z,79.20
2022-12-01T11:57:37.408Z,77.40
2022-12-01T12:00:17.621Z,78.60
2022-12-01T12:03:03.353Z,80.20
2022-12-01T12:05:49.256Z,77.70
2022-12-01T12:08:34.868Z,77.50
2022-12-01T12:11:09.348Z,77.50
2022-12-01T12:13:36.201Z,76.60
2022-12-01T12:16:05.791Z,76.40
2022-12-01T12:18:47.740Z,76.80
2022-12-01T12:21:17.575Z,76.40
2022-12-01T12:23:47.175Z,76.40
2022-12-01T12:26:21.296Z,76.40
2022-12-01T12:28:57.439Z,78.30
2022-12-01T12:31:30.513Z,79.20
2022-12-01T12:34:15.828Z,77.90
2022-12-01T12:37:01.486Z,76.80
2022-12-01T12:39:31.111Z,77.40
2022-12-01T12:41:58.019Z,76.80
2022-12-01T12:44:36.828Z,74.00
2022-12-01T12:47:11.721Z,73.50
2022-12-01T12:49:46.165Z,72.90
2022-12-01T12:52:20.030Z,73.00
2022-12-01T12:54:49.028Z,71.70
2022-12-01T12:57:25.202Z,73.00
2022-12-01T12:59:53.932Z,73.00
2022-12-01T13:02:23.894Z,72.20
2022-12-01T13:04:52.456Z,73.00
2022-12-01T13:07:24.863Z,72.60
2022-12-01T13:09:53.678Z,73.00
2022-12-01T13:12:30.329Z,72.90
2022-12-01T13:15:01.235Z,72.90
2022-12-01T13:17:33.635Z,71.60
2022-12-01T13:20:00.506Z,71.30
2022-12-01T13:22:31.302Z,73.10
2022-12-01T13:24:58.124Z,71.60
2022-12-01T13:27:25.868Z,71.40
2022-12-01T13:29:53.380Z,71.40
2022-12-01T13:32:29.783Z,73.20
2022-12-01T13:34:56.633Z,72.10
2022-12-01T13:37:31.179Z,71.00
2022-12-01T13:40:07.215Z,70.40
2022-12-01T13:42:34.503Z,70.60
2022-12-01T13:45:02.133Z,72.00
2022-12-01T13:47:37.267Z,70.30
2022-12-01T13:50:22.618Z,68.70
2022-12-01T13:52:50.003Z,68.70
2022-12-01T13:55:16.819Z,69.90
2022-12-01T13:57:50.406Z,70.70
2022-12-01T14:00:21.747Z,67.90
2022-12-01T14:03:08.775Z,69.20
2022-12-01T14:05:41.774Z,70.60
2022-12-01T14:08:24.670Z,71.00
2022-12-01T14:10:55.498Z,70.50
2022-12-01T14:13:22.602Z,73.30
2022-12-01T14:15:59.842Z,72.50
2022-12-01T14:18:26.736Z,71.60
2022-12-01T14:20:53.551Z,72.20
2022-12-01T14:23:24.387Z,71.80
2022-12-01T14:26:17.852Z,73.00
2022-12-01T14:28:59.819Z,72.20
2022-12-01T14:31:32.905Z,73.00
2022-12-01T14:34:02.864Z,74.30
2022-12-01T14:36:36.047Z,74.20
2022-12-01T14:39:26.030Z,74.30
2022-12-01T14:42:03.327Z,74.60
2022-12-01T14:44:33.300Z,73.00
2022-12-01T14:47:12.477Z,73.80
2022-12-01T14:49:43.871Z,73.30
2022-12-01T14:52:26.699Z,73.90
2022-12-01T14:54:54.406Z,72.90
2022-12-01T14:57:22.727Z,74.20
2022-12-01T15:00:01.652Z,74.30
2022-12-01T15:02:28.562Z,75.00
2022-12-01T15:05:15.669Z,75.90
2022-12-01T15:07:43.717Z,75.70
2022-12-01T15:10:16.001Z,75.80
2022-12-01T15:12:42.949Z,75.80
2022-12-01T15:15:24.273Z,76.80
2022-12-01T15:17:52.015Z,76.20
2022-12-01T15:20:31.169Z,76.40
2022-12-01T15:22:58.651Z,76.80
2022-12-01T15:25:26.648Z,77.00
2022-12-01T15:28:22.871Z,77.30
2022-12-01T15:30:50.614Z,76.50
2022-12-01T15:33:27.013Z,77.20
2022-12-01T15:35:55.194Z,78.00
2022-12-01T15:38:22.652Z,77.60
2022-12-01T15:43:38.958Z,78.00
2022-12-01T15:46:12.249Z,78.40
2022-12-01T15:48:39.440Z,78.20
2022-12-01T15:51:11.411Z,79.20
2022-12-01T15:53:40.352Z,78.80
2022-12-01T15:56:07.864Z,79.00
2022-12-01T15:58:36.377Z,80.00
2022-12-01T16:01:09.064Z,80.30
2022-12-01T16:03:47.111Z,80.40
2022-12-01T16:06:13.966Z,81.50
2022-12-01T16:08:40.848Z,82.40
2022-12-01T16:11:11.053Z,83.60
2022-12-01T16:13:45.244Z,84.50
2022-12-01T16:16:30.831Z,85.60
2022-12-01T16:18:57.795Z,85.60
2022-12-01T16:21:24.877Z,86.00
2022-12-01T16:24:01.469Z,86.80
2022-12-01T16:26:28.518Z,87.20
2022-12-01T16:28:55.442Z,87.80
2022-12-01T16:31:22.319Z,87.50
2022-12-01T16:33:49.300Z,87.60
2022-12-01T16:36:16.140Z,87.50
2022-12-01T16:38:43.346Z,87.50
2022-12-01T16:41:16.961Z,87.40
2022-12-01T16:43:59.132Z,87.10
2022-12-01T16:46:30.864Z,86.90
2022-12-01T16:48:57.731Z,87.40
2022-12-01T16:51:35.503Z,87.40
2022-12-01T16:54:11.467Z,87.60
2022-12-01T16:56:38.264Z,87.70
2022-12-01T16:59:05.236Z,88.10
2022-12-01T17:01:32.675Z,88.20
2022-12-01T17:04:02.394Z,88.40
2022-12-01T17:06:33.005Z,88.40
2022-12-01T17:08:59.817Z,88.80
2022-12-01T17:11:26.692Z,89.40
2022-12-01T17:13:53.586Z,90.00
2022-12-01T17:16:20.450Z,90.20
2022-12-01T17:18:47.344Z,90.30
2022-12-01T17:21:14.180Z,90.40
2022-12-01T17:23:41.159Z,90.40
2022-12-01T17:26:09.955Z,90.50
2022-12-01T17:28:36.858Z,90.60
2022-12-01T17:31:04.060Z,90.70
2022-12-01T17:33:31.105Z,90.80
2022-12-01T17:36:01.740Z,91.00
2022-12-01T17:38:28.645Z,91.00
2022-12-01T17:41:04.572Z,91.10
2022-12-01T17:43:32.203Z,91.10
2022-12-01T17:45:59.039Z,91.10
2022-12-01T17:48:26.015Z,91.30
2022-12-01T17:50:52.854Z,91.30
2022-12-01T17:53:19.928Z,91.20
2022-12-01T17:55:46.897Z,91.20
2022-12-01T17:58:13.885Z,91.30
2022-12-01T18:00:40.738Z,91.30
2022-12-01T18:03:08.218Z,91.30
2022-12-01T18:05:35.280Z,91.50
2022-12-01T18:08:02.458Z,91.20
2022-12-01T18:10:29.258Z,91.30
2022-12-01T18:12:56.759Z,91.20
2022-12-01T18:15:27.331Z,91.30
2022-12-01T18:17:57.355Z,91.40
2022-12-01T18:20:24.137Z,91.90
2022-12-01T18:22:50.999Z,91.50
2022-12-01T18:25:18.355Z,91.00
2022-12-01T18:27:45.218Z,91.00
2022-12-01T18:30:12.365Z,91.00
2022-12-01T18:32:39.212Z,91.30
2022-12-01T18:35:06.236Z,91.20
2022-12-01T18:37:33.075Z,91.20
2022-12-01T18:39:59.972Z,91.10
2022-12-01T18:42:26.977Z,91.30
2022-12-01T18:44:53.853Z,91.20
2022-12-01T18:47:20.710Z,91.20
2022-12-01T18:49:47.551Z,91.00
2022-12-01T18:52:14.410Z,91.00
2022-12-01T18:54:41.231Z,90.90
2022-12-01T18:57:08.072Z,91.00
2022-12-01T18:59:34.892Z,91.10
2022-12-01T19:02:01.802Z,91.00
2022-12-01T19:04:29.505Z,91.00
2022-12-01T19:06:56.357Z,90.60
2022-12-01T19:09:23.696Z,90.70
2022-12-01T19:11:52.277Z,90.70
2022-12-01T19:14:19.778Z,91.00
2022-12-01T19:16:47.683Z,91.00
2022-12-01T19:19:15.328Z,91.00
2022-12-01T19:24:47.217Z,90.90
2022-12-01T19:27:17.498Z,90.80
2022-12-01T19:29:44.328Z,91.00
2022-12-01T19:32:11.384Z,91.00
2022-12-01T19:34:38.714Z,91.10
2022-12-01T19:37:05.578Z,91.20
2022-12-01T19:39:32.724Z,91.00
2022-12-01T19:41:59.598Z,91.00
2022-12-01T19:44:26.440Z,90.80
2022-12-01T19:46:53.573Z,90.70
2022-12-01T19:49:20.388Z,90.60
2022-12-01T19:51:47.288Z,90.70
2022-12-01T19:54:15.436Z,90.70
2022-12-01T19:56:42.406Z,90.70
2022-12-01T19:59:11.359Z,90.70
2022-12-01T20:01:38.374Z,90.70
2022-12-01T20:04:05.223Z,91.00
2022-12-01T20:06:32.819Z,91.00
2022-12-01T20:09:00.561Z,90.90
2022-12-01T20:11:29.754Z,90.90
2022-12-01T20:13:56.844Z,91.00
2022-12-01T20:16:24.080Z,91.00
2022-12-01T20:18:52.410Z,91.00
2022-12-01T20:21:20.633Z,91.00
2022-12-01T20:23:48.470Z,90.90
2022-12-01T20:26:15.932Z,91.20
2022-12-01T20:28:42.791Z,91.00
2022-12-01T20:31:13.702Z,91.50
2022-12-01T20:33:40.797Z,91.20
2022-12-01T20:36:09.637Z,91.40
2022-12-01T20:38:36.733Z,91.50
2022-12-01T20:41:04.177Z,91.30
2022-12-01T20:43:31.143Z,91.50
2022-12-01T20:45:58.125Z,91.40
2022-12-01T20:48:25.188Z,91.60
2022-12-01T20:50:52.100Z,91.80
2022-12-01T20:53:18.923Z,91.70
2022-12-01T20:55:45.818Z,91.80
2022-12-01T20:58:12.677Z,91.60
2022-12-01T21:00:40.428Z,91.60
2022-12-01T21:03:07.298Z,91.50
2022-12-01T21:05:34.176Z,91.80
2022-12-01T21:08:01.527Z,91.70
2022-12-01T21:10:28.601Z,91.90
2022-12-01T21:13:16.607Z,91.80
2022-12-01T21:15:52.206Z,92.10
2022-12-01T21:18:24.015Z,92.30
2022-12-01T21:20:52.891Z,91.90
2022-12-01T21:23:20.232Z,92.10
2022-12-01T21:25:48.233Z,92.00
2022-12-01T21:28:19.151Z,91.80
2022-12-01T21:30:46.817Z,92.00
2022-12-01T21:33:34.198Z,92.20
2022-12-01T21:36:01.400Z,92.00
2022-12-01T21:38:28.351Z,92.00
2022-12-01T21:40:55.198Z,92.10
2022-12-01T21:43:22.845Z,92.10
2022-12-01T21:45:54.231Z,92.20
2022-12-01T21:48:23.221Z,92.10
2022-12-01T21:50:54.163Z,92.30
2022-12-01T21:53:21.219Z,92.20
2022-12-01T21:55:49.353Z,92.50
2022-12-01T21:58:22.183Z,92.30
2022-12-01T22:00:48.995Z,92.40
2022-12-01T22:03:21.656Z,92.40
2022-12-01T22:06:21.262Z,92.40
2022-12-01T22:08:38.699Z,92.40
2022-12-01T22:11:05.643Z,92.10
2022-12-01T22:13:40.148Z,92.30
2022-12-01T22:16:11.649Z,92.20
2022-12-01T22:18:39.357Z,92.20
2022-12-01T22:21:22.982Z,92.10
2022-12-01T22:23:50.235Z,92.50
2022-12-01T22:26:19.491Z,92.30
2022-12-01T22:28:46.843Z,92.20
2022-12-01T22:31:16.854Z,91.80
2022-12-01T22:33:43.753Z,92.10
2022-12-01T22:36:23.560Z,92.10
2022-12-01T22:38:50.462Z,91.80
2022-12-01T22:41:18.716Z,92.00
2022-12-01T22:43:52.908Z,92.00
2022-12-01T22:46:26.030Z,91.70
2022-12-01T22:48:55.798Z,91.90
2022-12-01T22:51:24.236Z,91.80
2022-12-01T22:53:52.224Z,91.80
2022-12-01T22:56:34.663Z,91.80
2022-12-01T22:59:02.968Z,91.70
2022-12-01T23:01:30.502Z,91.70
2022-12-01T23:04:00.475Z,91.60
2022-12-01T23:06:45.949Z,91.60
2022-12-01T23:09:13.541Z,91.70
2022-12-01T23:11:42.712Z,91.90
2022-12-01T23:14:13.769Z,91.90
2022-12-01T23:16:40.594Z,91.90
2022-12-01T23:19:09.715Z,92.20
2022-12-01T23:21:36.672Z,92.10
2022-12-01T23:24:03.836Z,92.20
2022-12-01T23:26:30.636Z,92.40
2022-12-01T23:28:57.911Z,92.30
2022-12-01T23:31:25.120Z,92.40
2022-12-01T23:33:52.048Z,92.20
2022-12-01T23:36:21.688Z,92.10
2022-12-01T23:38:50.025Z,92.30
2022-12-01T23:41:23.947Z,92.40
2022-12-01T23:43:52.243Z,92.30
2022-12-01T23:46:19.832Z,92.00
2022-12-01T23:48:53.788Z,91.90
2022-12-01T23:51:24.468Z,92.10
2022-12-01T23:53:51.650Z,91.80
2022-12-01T23:56:22.127Z,91.90
2022-12-01T23:58:49.227Z,92.00
